WTS weather

Tsiroanomandidy Airport
Tsiroanomandidy, Antananarivo, Madagascar

Public forecast

Using degrees Celsius for public forecast. Weather courtesy of forecast.io.

Closest aviation weather report (METAR) to Tsiroanomandidy Airport

Report is more than 6 hours old.

Closest report is Miandrivazo Airport, 59.1 nm (109.5 km) SW. Retrieved 2013/01/28 07:00 UTC (7 years ago):

FMMN 280700Z 24006KT 9999 FEW020 BKN233 31/25 Q1011

Closest aviation forecast (TAF) to Tsiroanomandidy Airport

Closest forecast is Ivato Airport, 81.0 nm (150.0 km) E. Retrieved 2019/11/15 12:00 UTC (6 hours ago):

TAF FMMI 151100Z 1512/1618 VRB04KT 9999 SCT017CB BKN020 TEMPO 1512/1523 VRB15KT 4000 TSRA BECMG 1520/1522 FEW010 BKN020 PROB30 1602/1605 3000 BR BECMG 1609/1612 SCT020CB SCT023 PROB40 TEMPO 1612/1618 VRB15KT 4000 TSRA